createdAt,value
2019-01-04T19:11:13.759Z,96268.73
2019-01-04T19:16:10.769Z,96274.97
2019-01-04T19:21:07.695Z,96263.26
2019-01-04T19:26:04.778Z,96266.09
2019-01-04T19:31:01.716Z,96262.98
2019-01-04T19:35:58.598Z,96259.75
2019-01-04T19:40:55.528Z,96256.86
2019-01-04T19:45:52.422Z,96251.50
2019-01-04T19:50:49.335Z,96244.19
2019-01-04T19:55:46.268Z,96241.01
2019-01-04T20:00:43.213Z,96248.17
2019-01-04T20:05:53.671Z,96235.91
2019-01-04T20:11:41.811Z,96230.36
2019-01-04T20:16:43.838Z,96233.20
2019-01-04T20:21:59.174Z,96227.58
2019-01-04T20:27:07.022Z,96221.43
2019-01-04T20:32:11.573Z,96218.50
2019-01-04T20:37:08.360Z,96219.09
2019-01-04T20:42:23.697Z,96210.72
2019-01-04T20:47:20.758Z,96200.43
2019-01-04T20:52:35.188Z,96200.58
2019-01-04T20:57:37.982Z,96198.57
2019-01-04T21:02:53.119Z,96191.98
2019-01-04T21:07:51.805Z,96181.91
2019-01-04T21:12:56.526Z,96178.41
2019-01-04T21:17:59.169Z,96176.64
2019-01-04T21:22:57.968Z,96172.30
2019-01-04T21:27:57.252Z,96161.63
2019-01-04T21:33:07.908Z,96156.95
2019-01-04T21:38:06.626Z,96151.02
2019-01-04T21:43:11.394Z,96150.73
2019-01-04T21:48:10.080Z,96144.03
2019-01-04T21:53:25.419Z,96146.28
2019-01-04T21:58:40.714Z,96143.46
2019-01-04T22:03:45.454Z,96127.08
2019-01-04T22:08:44.133Z,96132.52
2019-01-04T22:13:48.743Z,96122.73
2019-01-04T22:18:45.536Z,96118.83
2019-01-04T22:23:50.348Z,96116.78
2019-01-04T22:29:05.081Z,96116.98
2019-01-04T22:34:13.565Z,96112.61
2019-01-04T22:39:27.788Z,96112.65
2019-01-04T22:44:33.848Z,96104.97
2019-01-04T22:49:35.289Z,96105.91
2019-01-04T22:54:50.450Z,96094.44
2019-01-04T22:59:56.304Z,96079.98
2019-01-04T23:04:55.804Z,96074.05
2019-01-04T23:09:54.714Z,96065.42
2019-01-04T23:15:10.005Z,96029.59
2019-01-04T23:20:25.424Z,96033.30
2019-01-04T23:25:22.221Z,96026.11
2019-01-04T23:30:24.608Z,96018.56
2019-01-04T23:35:24.243Z,96014.14
2019-01-04T23:40:21.051Z,96008.89
2019-01-04T23:45:38.288Z,96006.04
2019-01-04T23:50:37.281Z,95994.44
2019-01-04T23:55:48.155Z,95986.70
